Kagamaru — JD3049 — position and weather

sailwx.info

Track history (hours):
 
Tides and Currents Weather Stations Pressure Air Temp Water Temp Dewpoint Dewpoint Depression Visibility Wind Speed Wind Dir Waves Ship Positions

Kagamaru

Last reported at 2017-May-29 02:01 UTC. Time now 2017-May-29 02:03 UTC.
Position N 35°24' E 139°39'.

Length 34 m; draft 3.6 m.

Type: Tug. MMSI: 431001272.

Date/timePositionNaut miles runAvg speedWind from/ knotsBaromVisibWave heightAir tempDewpointWater temp
2017-May-29 02:01N 35°24' E 139°39'2 4.7
2017-May-29 01:30N 35°23' E 139°41'0 1.0
2017-May-29 01:01N 35°23' E 139°41'0 0.0
2017-May-29 00:31N 35°23' E 139°41'0 0.1
2017-May-29 00:01N 35°23' E 139°41'0 0.0
2017-May-28 23:31N 35°23' E 139°41'2 4.9
2017-May-28 23:01N 35°24' E 139°38'1 1.2
2017-May-28 22:31N 35°24' E 139°37'1 1.7
2017-May-28 22:01N 35°24' E 139°38'2 4.8
2017-May-28 21:31N 35°23' E 139°41'0 0.3
2017-May-28 21:00N 35°23' E 139°41'4 8.0
2017-May-28 20:30N 35°27' E 139°41'1 2.8
2017-May-28 20:01N 35°27' E 139°39'0 0.0
2017-May-28 19:31N 35°27' E 139°39'0 0.0
2017-May-28 19:01N 35°27' E 139°39'0 0.0
2017-May-28 18:30N 35°27' E 139°39'0 0.0
2017-May-28 18:01N 35°27' E 139°39'0 0.0
2017-May-28 17:30N 35°27' E 139°39'0 0.0
2017-May-28 17:01N 35°27' E 139°39'0 0.0
2017-May-28 16:31N 35°27' E 139°39'0 0.0
2017-May-28 16:00N 35°27' E 139°39'0 0.0
2017-May-28 15:30N 35°27' E 139°39'0 0.0
2017-May-28 15:01N 35°27' E 139°39'0 0.0
2017-May-28 14:01N 35°27' E 139°39'0 0.0
2017-May-28 13:31N 35°27' E 139°39'0 0.0
2017-May-28 13:01N 35°27' E 139°39'0 0.0
2017-May-28 12:31N 35°27' E 139°39'0 0.0
2017-May-28 12:00N 35°27' E 139°39'0 0.0
2017-May-28 11:31N 35°27' E 139°39'0 0.0
2017-May-28 11:01N 35°27' E 139°39'0 0.0
2017-May-28 10:31N 35°27' E 139°39'0 0.0
2017-May-28 10:01N 35°27' E 139°39'1 2.6
2017-May-28 09:30N 35°27' E 139°41'1 1.0
2017-May-28 09:00N 35°26' E 139°41'1 2.2
2017-May-28 08:30N 35°26' E 139°42'1 2.0
2017-May-28 08:00N 35°25' E 139°43'3 6.7
2017-May-28 07:30N 35°27' E 139°39'0 0.0
2017-May-28 07:00N 35°27' E 139°39'0 0.0
2017-May-28 06:31N 35°27' E 139°39'0 0.0
2017-May-28 06:01N 35°27' E 139°39'0 0.0
2017-May-28 05:31N 35°27' E 139°39'0 0.0
2017-May-28 05:01N 35°27' E 139°39'0 0.0
2017-May-28 04:31N 35°27' E 139°39'0 0.0
2017-May-28 04:01N 35°27' E 139°39'0 0.0
2017-May-28 03:31N 35°27' E 139°39'0 0.0
2017-May-28 03:01N 35°27' E 139°39'0 0.0
2017-May-28 02:30N 35°27' E 139°39'0 0.0
2017-May-28 02:01N 35°27' E 139°39'0 0.0
2017-May-28 01:31N 35°27' E 139°39'0 0.0
2017-May-28 01:01N 35°27' E 139°39'0 0.0
2017-May-28 00:30N 35°27' E 139°39'0 0.0
2017-May-28 00:01N 35°27' E 139°39'0 0.0
2017-May-27 23:31N 35°27' E 139°39'3 6.8
2017-May-27 23:00N 35°27' E 139°43'4 8.5
2017-May-27 22:30N 35°30' E 139°47'3 5.4
2017-May-27 22:01N 35°30' E 139°44'4 8.6
2017-May-27 21:30N 35°27' E 139°40'0 0.8
2017-May-27 21:01N 35°27' E 139°39'0 0.0
2017-May-27 20:31N 35°27' E 139°39'0 0.0
2017-May-27 20:01N 35°27' E 139°39'0 0.0
2017-May-27 19:30N 35°27' E 139°39'0 0.0
2017-May-27 19:01N 35°27' E 139°39'0 0.0
2017-May-27 18:31N 35°27' E 139°39'0 0.0
2017-May-27 18:01N 35°27' E 139°39'0 0.0
2017-May-27 17:30N 35°27' E 139°39'0 0.0
2017-May-27 17:01N 35°27' E 139°39'0 0.0
2017-May-27 16:31N 35°27' E 139°39'0 0.0
2017-May-27 16:00N 35°27' E 139°39'0 0.0
2017-May-27 15:31N 35°27' E 139°39'0 0.0
2017-May-27 15:01N 35°27' E 139°39'0 0.0
2017-May-27 14:31N 35°27' E 139°39'0 0.0
2017-May-27 13:30N 35°27' E 139°39'0 0.0
2017-May-27 13:01N 35°27' E 139°39'0 0.0
2017-May-27 12:30N 35°27' E 139°39'0 0.0
2017-May-27 12:00N 35°27' E 139°39'0 0.0
2017-May-27 11:31N 35°27' E 139°39'0 0.0
2017-May-27 11:01N 35°27' E 139°39'0 0.0
2017-May-27 10:31N 35°27' E 139°39'0 0.0
2017-May-27 10:01N 35°27' E 139°39'0 0.0
2017-May-27 09:31N 35°27' E 139°39'0 0.0
2017-May-27 09:01N 35°27' E 139°39'0 0.0
2017-May-27 08:31N 35°27' E 139°39'0 0.0
2017-May-27 08:01N 35°27' E 139°39'0 0.0
2017-May-27 07:30N 35°27' E 139°39'0 0.0
2017-May-27 07:01N 35°27' E 139°39'0 0.0
2017-May-27 06:31N 35°27' E 139°39'0 0.0
2017-May-27 06:00N 35°27' E 139°39'0 0.0
2017-May-27 05:30N 35°27' E 139°39'0 0.0
2017-May-27 05:01N 35°27' E 139°39'0 0.0
2017-May-27 04:31N 35°27' E 139°39'0 0.0
2017-May-27 04:01N 35°27' E 139°39'0 0.0
2017-May-27 03:30N 35°27' E 139°39'0 0.0
2017-May-27 03:01N 35°27' E 139°39'0 0.0
2017-May-27 02:30N 35°27' E 139°39'0 0.0
2017-May-27 02:01N 35°27' E 139°39'0 0.0
2017-May-27 01:31N 35°27' E 139°39'0 0.0
2017-May-27 01:01N 35°27' E 139°39'0 0.0
2017-May-27 00:30N 35°27' E 139°39'0 0.0
2017-May-27 00:01N 35°27' E 139°39'0 0.0
2017-May-26 23:31N 35°27' E 139°39'0 0.0
2017-May-26 23:00N 35°27' E 139°39'0 0.0
2017-May-26 22:30N 35°27' E 139°39'0 0.0
2017-May-26 22:01N 35°27' E 139°39'0 0.0
2017-May-26 21:30N 35°27' E 139°39'0 0.0
2017-May-26 21:01N 35°27' E 139°39'0 0.0
2017-May-26 20:31N 35°27' E 139°39'0 0.0
2017-May-26 20:01N 35°27' E 139°39'0 0.0
2017-May-26 19:31N 35°27' E 139°39'0 0.0
2017-May-26 19:00N 35°27' E 139°39'0 0.0
2017-May-26 18:30N 35°27' E 139°39'0 0.0
2017-May-26 18:00N 35°27' E 139°39'0 0.0
2017-May-26 17:30N 35°27' E 139°39'0 0.0
2017-May-26 17:00N 35°27' E 139°39'0 0.0
2017-May-26 16:31N 35°27' E 139°39'0 0.0
2017-May-26 16:01N 35°27' E 139°39'0 0.0
2017-May-26 15:31N 35°27' E 139°39'0 0.0
2017-May-26 15:01N 35°27' E 139°39'0 0.0
2017-May-26 14:01N 35°27' E 139°39'0 0.0
2017-May-26 13:31N 35°27' E 139°39'0 0.0
2017-May-26 13:00N 35°27' E 139°39'0 0.0
2017-May-26 12:31N 35°27' E 139°39'0 0.0
2017-May-26 12:01N 35°27' E 139°39'0 0.0
2017-May-26 11:30N 35°27' E 139°39'0 0.0
2017-May-26 11:01N 35°27' E 139°39'0 0.0
2017-May-26 10:31N 35°27' E 139°39'0 0.0
2017-May-26 10:00N 35°27' E 139°39'0 0.0
2017-May-26 09:31N 35°27' E 139°39'0 0.0
2017-May-26 09:00N 35°27' E 139°39'0 0.0
2017-May-26 08:31N 35°27' E 139°39'0 0.0
2017-May-26 08:01N 35°27' E 139°39'0 0.0
2017-May-26 07:30N 35°27' E 139°39'0 0.0
2017-May-26 07:00N 35°27' E 139°39'0 0.0
2017-May-26 06:31N 35°27' E 139°39'0 0.0
2017-May-26 06:01N 35°27' E 139°39'0 0.0
2017-May-26 05:30N 35°27' E 139°39'0 0.0
2017-May-26 05:01N 35°27' E 139°39'0 0.0
2017-May-26 04:30N 35°27' E 139°39'0 0.0
2017-May-26 04:00N 35°27' E 139°39'0 0.0
2017-May-26 03:31N 35°27' E 139°39'0 0.0
2017-May-26 03:01N 35°27' E 139°39'0 0.0
2017-May-26 02:30N 35°27' E 139°39'0 0.0
2017-May-26 02:01N 35°27' E 139°39'2 4.4
2017-May-26 01:30N 35°27' E 139°42'2 4.8
2017-May-26 01:01N 35°28' E 139°44'0 0.1
2017-May-26 00:31N 35°28' E 139°44'2 3.7
2017-May-26 00:01N 35°29' E 139°43'1 2.7
2017-May-25 23:31N 35°28' E 139°42'2 3.4
2017-May-25 23:01N 35°27' E 139°43'3 5.3
2017-May-25 22:31N 35°27' E 139°40'1 1.2
2017-May-25 22:01N 35°27' E 139°39'0 0.0
2017-May-25 21:31N 35°27' E 139°39'0 0.0
2017-May-25 21:01N 35°27' E 139°39'0 0.0
2017-May-25 20:30N 35°27' E 139°39'0 0.0
2017-May-25 20:00N 35°27' E 139°39'0 0.0
2017-May-25 19:31N 35°27' E 139°39'0 0.0
2017-May-25 19:01N 35°27' E 139°39'0 0.0
2017-May-25 18:31N 35°27' E 139°39'0 0.0
2017-May-25 18:01N 35°27' E 139°39'0 0.0
2017-May-25 17:31N 35°27' E 139°39'0 0.0
2017-May-25 17:01N 35°27' E 139°39'0 0.0
2017-May-25 16:31N 35°27' E 139°39'0 0.0
2017-May-25 16:01N 35°27' E 139°39'0 0.0
2017-May-25 15:30N 35°27' E 139°39'0 0.0
2017-May-25 15:00N 35°27' E 139°39'0 0.0
2017-May-25 14:30N 35°27' E 139°39'0 0.0
2017-May-25 13:31N 35°27' E 139°39'0 0.0
2017-May-25 13:01N 35°27' E 139°39'0 0.0
2017-May-25 12:31N 35°27' E 139°39'0 0.0
2017-May-25 12:01N 35°27' E 139°39'0 0.0
2017-May-25 11:30N 35°27' E 139°39'0 0.0
2017-May-25 11:00N 35°27' E 139°39'1 2.2
2017-May-25 10:30N 35°27' E 139°41'4 7.1
2017-May-25 10:00N 35°24' E 139°41'1 1.4
2017-May-25 09:31N 35°24' E 139°41'1 1.7
2017-May-25 09:00N 35°23' E 139°41'1 2.1
2017-May-25 08:30N 35°22' E 139°42'4 7.3
2017-May-25 08:00N 35°26' E 139°42'2 4.2
2017-May-25 07:31N 35°27' E 139°39'0 0.0
2017-May-25 07:00N 35°27' E 139°39'0 0.0
2017-May-25 06:31N 35°27' E 139°39'0 0.0
2017-May-25 06:00N 35°27' E 139°39'0 0.0
2017-May-25 05:31N 35°27' E 139°39'0 0.0
2017-May-25 05:01N 35°27' E 139°39'0 0.0
2017-May-25 04:31N 35°27' E 139°39'0 0.0
2017-May-25 04:01N 35°27' E 139°39'0 0.0
2017-May-25 03:31N 35°27' E 139°39'0 0.0
2017-May-25 03:00N 35°27' E 139°39'2 4.6
2017-May-25 02:30N 35°27' E 139°42'4 8.9
2017-May-25 02:01N 35°29' E 139°47'0 0.2
2017-May-25 01:31N 35°29' E 139°47'0 0.1
2017-May-25 01:00N 35°29' E 139°47'1 1.9
2017-May-25 00:30N 35°28' E 139°47'0 0.2
2017-May-25 00:01N 35°28' E 139°47'3 6.3
2017-May-24 23:31N 35°27' E 139°43'3 6.6
2017-May-24 23:00N 35°27' E 139°39'0 0.0
2017-May-24 22:31N 35°27' E 139°39'0 0.0
2017-May-24 22:01N 35°27' E 139°39'0 0.0
2017-May-24 21:31N 35°27' E 139°39'0 0.0
2017-May-24 21:01N 35°27' E 139°39'0 0.0
2017-May-24 20:30N 35°27' E 139°39'0 0.0
2017-May-24 20:01N 35°27' E 139°39'0 0.0
2017-May-24 19:31N 35°27' E 139°39'0 0.0
2017-May-24 19:01N 35°27' E 139°39'0 0.0
2017-May-24 18:30N 35°27' E 139°39'0 0.0
2017-May-24 18:01N 35°27' E 139°39'0 0.0
2017-May-24 17:31N 35°27' E 139°39'0 0.0
2017-May-24 17:01N 35°27' E 139°39'0 0.0
2017-May-24 16:31N 35°27' E 139°39'0 0.0
2017-May-24 16:01N 35°27' E 139°39'0 0.0
2017-May-24 15:31N 35°27' E 139°39'0 0.0
2017-May-24 15:01N 35°27' E 139°39'0 0.0
2017-May-24 14:30N 35°27' E 139°39'0 0.0
2017-May-24 13:31N 35°27' E 139°39'0 0.0
2017-May-24 13:01N 35°27' E 139°39'0 0.0
2017-May-24 12:31N 35°27' E 139°39'0 0.0
2017-May-24 12:00N 35°27' E 139°39'0 0.0
2017-May-24 11:31N 35°27' E 139°39'0 0.0
2017-May-24 11:01N 35°27' E 139°39'0 0.0
2017-May-24 10:31N 35°27' E 139°39'0 0.0
2017-May-24 10:01N 35°27' E 139°39'0 0.0
2017-May-24 09:31N 35°27' E 139°39'0 0.0
2017-May-24 09:01N 35°27' E 139°39'0 0.0
2017-May-24 08:31N 35°27' E 139°39'0 0.0
2017-May-24 08:00N 35°27' E 139°39'0 0.0
2017-May-24 07:31N 35°27' E 139°39'0 0.0
2017-May-24 07:01N 35°27' E 139°39'0 0.0
2017-May-24 06:31N 35°27' E 139°39'0 0.0
2017-May-24 06:00N 35°27' E 139°39'0 0.0
2017-May-24 05:31N 35°27' E 139°39'1 1.8
2017-May-24 05:00N 35°26' E 139°40'1 2.7
2017-May-24 04:30N 35°27' E 139°42'0 0.5
2017-May-24 04:01N 35°26' E 139°42'2 4.0
2017-May-24 03:30N 35°27' E 139°39'0 0.0
2017-May-24 03:01N 35°27' E 139°39'0 0.0
2017-May-24 02:31N 35°27' E 139°39'0 0.0
2017-May-24 02:01N 35°27' E 139°39'0 0.0
2017-May-24 01:31N 35°27' E 139°39'0 0.5
2017-May-24 01:00N 35°27' E 139°39'0 0.0
2017-May-24 00:31N 35°27' E 139°39'0 0.0
2017-May-24 00:01N 35°27' E 139°39'0 0.0
2017-May-23 23:31N 35°27' E 139°39'0 0.5
2017-May-23 23:01N 35°27' E 139°39'4 7.7
2017-May-23 22:31N 35°30' E 139°43'0 0.3
2017-May-23 22:01N 35°30' E 139°43'1 3.0
2017-May-23 21:31N 35°28' E 139°42'2 3.7
2017-May-23 21:01N 35°28' E 139°40'1 2.4
2017-May-23 20:30N 35°27' E 139°39'0 0.0
2017-May-23 20:01N 35°27' E 139°39'0 0.0
2017-May-23 19:31N 35°27' E 139°39'0 0.0
2017-May-23 19:01N 35°27' E 139°39'0 0.0
2017-May-23 18:30N 35°27' E 139°39'0 0.0
2017-May-23 18:01N 35°27' E 139°39'0 0.0
2017-May-23 17:30N 35°27' E 139°39'0 0.0
2017-May-23 17:01N 35°27' E 139°39'0 0.0
2017-May-23 16:31N 35°27' E 139°39'0 0.0
2017-May-23 16:01N 35°27' E 139°39'0 0.0
2017-May-23 15:30N 35°27' E 139°39'0 0.0
2017-May-23 15:01N 35°27' E 139°39'0 0.0
2017-May-23 14:31N 35°27' E 139°39'0 0.0
2017-May-23 13:30N 35°27' E 139°39'0 0.0
2017-May-23 13:01N 35°27' E 139°39'0 0.0
2017-May-23 12:31N 35°27' E 139°39'0 0.0
2017-May-23 12:00N 35°27' E 139°39'0 0.0
2017-May-23 11:30N 35°27' E 139°39'0 0.0
2017-May-23 11:01N 35°27' E 139°39'0 0.0
2017-May-23 10:31N 35°27' E 139°39'0 0.0
2017-May-23 10:01N 35°27' E 139°39'0 0.0
2017-May-23 09:31N 35°27' E 139°39'0 0.0
2017-May-23 09:01N 35°27' E 139°39'0 0.0
2017-May-23 08:30N 35°27' E 139°39'0 0.0
2017-May-23 08:01N 35°27' E 139°39'0 0.0
2017-May-23 07:31N 35°27' E 139°39'0 0.0
2017-May-23 07:01N 35°27' E 139°39'0 0.0
2017-May-23 06:31N 35°27' E 139°39'0 0.0
2017-May-23 06:01N 35°27' E 139°39'0 0.1
2017-May-23 05:31N 35°27' E 139°39'3 5.4
2017-May-23 05:01N 35°28' E 139°42'1 1.3
2017-May-23 04:31N 35°28' E 139°41'2 4.5
2017-May-23 04:01N 35°27' E 139°39'0 0.0
2017-May-23 03:30N 35°27' E 139°39'0 0.0
2017-May-23 03:01N 35°27' E 139°39'0 0.0
2017-May-23 02:30N 35°27' E 139°39'0 0.0
2017-May-23 02:01N 35°27' E 139°39'0 0.0
2017-May-23 01:31N 35°27' E 139°39'0 0.0
2017-May-23 01:00N 35°27' E 139°39'0 0.0
2017-May-23 00:31N 35°27' E 139°39'0 0.0
2017-May-23 00:00N 35°27' E 139°39'0 0.0
2017-May-22 23:31N 35°27' E 139°39'0 0.0
2017-May-22 23:01N 35°27' E 139°39'0 0.0
2017-May-22 22:31N 35°27' E 139°39'0 0.0
2017-May-22 22:01N 35°27' E 139°39'0 0.0
2017-May-22 21:30N 35°27' E 139°39'0 0.0
2017-May-22 21:00N 35°27' E 139°39'0 0.0
2017-May-22 20:30N 35°27' E 139°39'0 0.0
2017-May-22 20:01N 35°27' E 139°39'0 0.0
2017-May-22 19:31N 35°27' E 139°39'0 0.0
2017-May-22 19:00N 35°27' E 139°39'0 0.0
2017-May-22 18:31N 35°27' E 139°39'0 0.0
2017-May-22 18:01N 35°27' E 139°39'0 0.0
2017-May-22 17:31N 35°27' E 139°39'0 0.0
2017-May-22 17:00N 35°27' E 139°39'0 0.0
2017-May-22 16:31N 35°27' E 139°39'0 0.0
2017-May-22 16:01N 35°27' E 139°39'0 0.0
2017-May-22 15:30N 35°27' E 139°39'0 0.0
2017-May-22 15:00N 35°27' E 139°39'0 0.0
2017-May-22 14:00N 35°27' E 139°39'0 0.0
2017-May-22 13:30N 35°27' E 139°39'0 0.0
2017-May-22 13:01N 35°27' E 139°39'0 0.0
2017-May-22 12:31N 35°27' E 139°39'0 0.0
2017-May-22 12:01N 35°27' E 139°39'0 0.0
2017-May-22 11:31N 35°27' E 139°39'0 0.0
2017-May-22 11:01N 35°27' E 139°39'0 0.0
2017-May-22 10:31N 35°27' E 139°39'0 0.0
2017-May-22 10:01N 35°27' E 139°39'0 0.0
2017-May-22 09:31N 35°27' E 139°39'0 0.0
2017-May-22 09:00N 35°27' E 139°39'0 0.0
2017-May-22 08:31N 35°27' E 139°39'0 0.0
2017-May-22 08:00N 35°27' E 139°39'0 0.0
2017-May-22 07:31N 35°27' E 139°39'0 0.0
2017-May-22 07:01N 35°27' E 139°39'0 0.0
2017-May-22 06:30N 35°27' E 139°39'0 0.0
2017-May-22 06:00N 35°27' E 139°39'0 0.0
2017-May-22 05:30N 35°27' E 139°39'0 0.0
2017-May-22 05:00N 35°27' E 139°39'1 1.2
2017-May-22 04:31N 35°27' E 139°40'3 6.4
2017-May-22 04:00N 35°28' E 139°43'1 1.8
2017-May-22 03:30N 35°28' E 139°44'0 0.0
2017-May-22 03:00N 35°28' E 139°44'0 0.5
2017-May-22 02:30N 35°28' E 139°44'2 3.5
2017-May-22 02:00N 35°27' E 139°45'4 8.4
2017-May-22 01:30N 35°27' E 139°40'1 1.9
2017-May-22 01:00N 35°27' E 139°39'0 0.0
2017-May-22 00:31N 35°27' E 139°39'0 0.0
2017-May-22 00:00N 35°27' E 139°39'0 0.0
2017-May-21 23:31N 35°27' E 139°39'0 0.0
2017-May-21 23:00N 35°27' E 139°39'0 0.0
2017-May-21 22:30N 35°27' E 139°39'0 0.0
2017-May-21 22:00N 35°27' E 139°39'0 0.0
2017-May-21 21:31N 35°27' E 139°39'0 0.0
2017-May-21 21:01N 35°27' E 139°39'0 0.0
2017-May-21 20:31N 35°27' E 139°39'0 0.0
2017-May-21 20:00N 35°27' E 139°39'0 0.0
2017-May-21 19:31N 35°27' E 139°39'0 0.0
2017-May-21 19:01N 35°27' E 139°39'0 0.0
2017-May-21 18:31N 35°27' E 139°39'0 0.0
2017-May-21 18:01N 35°27' E 139°39'0 0.0
2017-May-21 17:30N 35°27' E 139°39'0 0.0
2017-May-21 17:00N 35°27' E 139°39'0 0.0
2017-May-21 16:31N 35°27' E 139°39'0 0.0
2017-May-21 16:01N 35°27' E 139°39'0 0.0
2017-May-21 15:30N 35°27' E 139°39'0 0.0
2017-May-21 15:01N 35°27' E 139°39'0 0.0
2017-May-21 14:00N 35°27' E 139°39'0 0.0
2017-May-21 13:31N 35°27' E 139°39'0 0.0
2017-May-21 13:01N 35°27' E 139°39'0 0.0
2017-May-21 12:31N 35°27' E 139°39'0 0.0
2017-May-21 12:01N 35°27' E 139°39'0 0.0
2017-May-21 11:30N 35°27' E 139°39'0 0.0
2017-May-21 11:01N 35°27' E 139°39'0 0.0
2017-May-21 10:31N 35°27' E 139°39'0 0.0
2017-May-21 10:01N 35°27' E 139°39'0 0.0
2017-May-21 09:31N 35°27' E 139°39'0 0.0
2017-May-21 09:00N 35°27' E 139°39'0 0.0
2017-May-21 08:31N 35°27' E 139°39'0 0.0
2017-May-21 08:01N 35°27' E 139°39'0 0.0
2017-May-21 07:31N 35°27' E 139°39'0 0.0
2017-May-21 07:01N 35°27' E 139°39'0 0.0
2017-May-21 06:31N 35°27' E 139°39'0 0.6
2017-May-21 06:00N 35°27' E 139°39'2 4.8
2017-May-21 05:30N 35°28' E 139°42'1 1.9
2017-May-21 05:01N 35°28' E 139°41'2 3.7
2017-May-21 04:30N 35°27' E 139°39'0 0.0
2017-May-21 04:01N 35°27' E 139°39'0 0.0
2017-May-21 03:30N 35°27' E 139°39'0 0.0
2017-May-21 03:01N 35°27' E 139°39'0 0.0
2017-May-21 02:31N 35°27' E 139°39'0 0.0
2017-May-21 02:01N 35°27' E 139°39'0 0.0
2017-May-21 01:30N 35°27' E 139°39'0 0.0
2017-May-21 01:01N 35°27' E 139°39'0 0.0
2017-May-21 00:31N 35°27' E 139°39'0 0.0
2017-May-21 00:01N 35°27' E 139°39'1 2.9
2017-May-20 23:31N 35°26' E 139°41'0 0.1
2017-May-20 23:01N 35°26' E 139°41'1 2.0
2017-May-20 22:31N 35°27' E 139°42'2 4.7
2017-May-20 22:00N 35°27' E 139°45'5 9.1
2017-May-20 21:30N 35°27' E 139°39'0 0.0
2017-May-20 21:00N 35°27' E 139°39'0 0.0
2017-May-20 20:31N 35°27' E 139°39'0 0.0
2017-May-20 20:01N 35°27' E 139°39'0 0.0
2017-May-20 19:31N 35°27' E 139°39'0 0.0
2017-May-20 19:01N 35°27' E 139°39'0 0.0
2017-May-20 18:31N 35°27' E 139°39'0 0.0
2017-May-20 18:01N 35°27' E 139°39'0 0.0
2017-May-20 17:31N 35°27' E 139°39'0 0.0
2017-May-20 17:01N 35°27' E 139°39'0 0.0
2017-May-20 16:30N 35°27' E 139°39'0 0.0
2017-May-20 16:00N 35°27' E 139°39'0 0.0
2017-May-20 15:30N 35°27' E 139°39'0 0.0
2017-May-20 15:00N 35°27' E 139°39'0 0.0
2017-May-20 14:00N 35°27' E 139°39'0 0.0
2017-May-20 13:31N 35°27' E 139°39'0 0.0
2017-May-20 13:01N 35°27' E 139°39'0 0.0
2017-May-20 12:31N 35°27' E 139°39'0 0.0
2017-May-20 12:01N 35°27' E 139°39'0 0.0
2017-May-20 11:30N 35°27' E 139°39'0 0.0
2017-May-20 11:01N 35°27' E 139°39'0 0.0
2017-May-20 10:31N 35°27' E 139°39'0 0.0
2017-May-20 10:01N 35°27' E 139°39'0 0.0
2017-May-20 09:30N 35°27' E 139°39'0 0.0
2017-May-20 09:00N 35°27' E 139°39'0 0.0
2017-May-20 08:30N 35°27' E 139°39'0 0.0
2017-May-20 08:00N 35°27' E 139°39'0 0.0
2017-May-20 07:30N 35°27' E 139°39'0 0.0
2017-May-20 07:00N 35°27' E 139°39'0 0.0
2017-May-20 06:30N 35°27' E 139°39'0 0.0
2017-May-20 06:01N 35°27' E 139°39'0 0.0
2017-May-20 05:31N 35°27' E 139°39'0 0.0
2017-May-20 05:01N 35°27' E 139°39'0 0.0
2017-May-20 04:31N 35°27' E 139°39'0 0.0
2017-May-20 04:01N 35°27' E 139°39'0 0.0
2017-May-20 03:31N 35°27' E 139°39'0 0.0
2017-May-20 03:01N 35°27' E 139°39'0 0.0
2017-May-20 02:31N 35°27' E 139°39'0 0.0
2017-May-20 02:00N 35°27' E 139°39'0 0.0
2017-May-20 01:30N 35°27' E 139°39'0 0.0
2017-May-20 01:01N 35°27' E 139°39'0 0.0
2017-May-20 00:31N 35°27' E 139°39'0 0.0
2017-May-20 00:01N 35°27' E 139°39'0 0.0
2017-May-19 23:31N 35°27' E 139°39'1 1.3
2017-May-19 23:00N 35°27' E 139°40'1 2.4
2017-May-19 22:31N 35°27' E 139°41'0 0.9
2017-May-19 22:00N 35°27' E 139°42'2 3.1
2017-May-19 21:31N 35°25' E 139°42'0 0.6
2017-May-19 21:01N 35°25' E 139°43'3 6.5
2017-May-19 20:31N 35°27' E 139°39'0 0.0
2017-May-19 20:01N 35°27' E 139°39'0 0.0
2017-May-19 19:31N 35°27' E 139°39'0 0.0
2017-May-19 19:01N 35°27' E 139°39'0 0.0
2017-May-19 18:30N 35°27' E 139°39'0 0.0
2017-May-19 18:01N 35°27' E 139°39'0 0.0
2017-May-19 17:31N 35°27' E 139°39'0 0.0
2017-May-19 17:00N 35°27' E 139°39'0 0.0
2017-May-19 16:30N 35°27' E 139°39'0 0.0
2017-May-19 16:01N 35°27' E 139°39'0 0.0
2017-May-19 15:31N 35°27' E 139°39'0 0.0
2017-May-19 15:01N 35°27' E 139°39'0 0.0
2017-May-19 14:01N 35°27' E 139°39'0 0.0
2017-May-19 13:31N 35°27' E 139°39'0 0.0
2017-May-19 13:00N 35°27' E 139°39'0 0.0
2017-May-19 12:31N 35°27' E 139°39'0 0.0
2017-May-19 12:00N 35°27' E 139°39'0 0.0
2017-May-19 11:31N 35°27' E 139°39'0 0.0
2017-May-19 11:01N 35°27' E 139°39'0 0.0
2017-May-19 10:31N 35°27' E 139°39'0 0.0
2017-May-19 10:00N 35°27' E 139°39'0 0.0
2017-May-19 09:31N 35°27' E 139°39'0 0.0
2017-May-19 09:00N 35°27' E 139°39'0 0.0
2017-May-19 08:30N 35°27' E 139°39'0 0.0
2017-May-19 08:01N 35°27' E 139°39'3 6.8
2017-May-19 07:30N 35°29' E 139°42'4 7.1
2017-May-19 07:00N 35°31' E 139°46'0 0.0
2017-May-19 06:31N 35°31' E 139°46'0 0.4
2017-May-19 06:01N 35°31' E 139°46'1 2.6
2017-May-19 05:27N 35°30' E 139°48'0 0.8
2017-May-19 05:00N 35°30' E 139°47'4 7.6
2017-May-19 04:31N 35°28' E 139°43'3 6.9
2017-May-19 04:01N 35°27' E 139°39'0 0.0
2017-May-19 03:31N 35°27' E 139°39'0 0.0
2017-May-19 03:01N 35°27' E 139°39'0 0.0
2017-May-19 02:30N 35°27' E 139°39'0 0.0
2017-May-19 02:01N 35°27' E 139°39'  
Track history (hours):
 
Tides and Currents Weather Stations Pressure Air Temp Water Temp Dewpoint Dewpoint Depression Visibility Wind Speed Wind Dir Waves Ship Positions

Kagamaru

Last reported at 2017-May-29 02:01 UTC. Time now 2017-May-29 02:03 UTC.
Position N 35°24' E 139°39'.

Length 34 m; draft 3.6 m.

Type: Tug. MMSI: 431001272.

Date/timePositionNaut miles runAvg speedWind from/ knotsBaromVisibWave heightAir tempDewpointWater temp
2017-May-29 02:01N 35°24' E 139°39'2 4.7
2017-May-29 01:30N 35°23' E 139°41'0 1.0
2017-May-29 01:01N 35°23' E 139°41'0 0.0
2017-May-29 00:31N 35°23' E 139°41'0 0.1
2017-May-29 00:01N 35°23' E 139°41'0 0.0
2017-May-28 23:31N 35°23' E 139°41'2 4.9
2017-May-28 23:01N 35°24' E 139°38'1 1.2
2017-May-28 22:31N 35°24' E 139°37'1 1.7
2017-May-28 22:01N 35°24' E 139°38'2 4.8
2017-May-28 21:31N 35°23' E 139°41'0 0.3
2017-May-28 21:00N 35°23' E 139°41'4 8.0
2017-May-28 20:30N 35°27' E 139°41'1 2.8
2017-May-28 20:01N 35°27' E 139°39'0 0.0
2017-May-28 19:31N 35°27' E 139°39'0 0.0
2017-May-28 19:01N 35°27' E 139°39'0 0.0
2017-May-28 18:30N 35°27' E 139°39'0 0.0
2017-May-28 18:01N 35°27' E 139°39'0 0.0
2017-May-28 17:30N 35°27' E 139°39'0 0.0
2017-May-28 17:01N 35°27' E 139°39'0 0.0
2017-May-28 16:31N 35°27' E 139°39'0 0.0
2017-May-28 16:00N 35°27' E 139°39'0 0.0
2017-May-28 15:30N 35°27' E 139°39'0 0.0
2017-May-28 15:01N 35°27' E 139°39'0 0.0
2017-May-28 14:01N 35°27' E 139°39'0 0.0
2017-May-28 13:31N 35°27' E 139°39'0 0.0
2017-May-28 13:01N 35°27' E 139°39'0 0.0
2017-May-28 12:31N 35°27' E 139°39'0 0.0
2017-May-28 12:00N 35°27' E 139°39'0 0.0
2017-May-28 11:31N 35°27' E 139°39'0 0.0
2017-May-28 11:01N 35°27' E 139°39'0 0.0
2017-May-28 10:31N 35°27' E 139°39'0 0.0
2017-May-28 10:01N 35°27' E 139°39'1 2.6
2017-May-28 09:30N 35°27' E 139°41'1 1.0
2017-May-28 09:00N 35°26' E 139°41'1 2.2
2017-May-28 08:30N 35°26' E 139°42'1 2.0
2017-May-28 08:00N 35°25' E 139°43'3 6.7
2017-May-28 07:30N 35°27' E 139°39'0 0.0
2017-May-28 07:00N 35°27' E 139°39'0 0.0
2017-May-28 06:31N 35°27' E 139°39'0 0.0
2017-May-28 06:01N 35°27' E 139°39'0 0.0
2017-May-28 05:31N 35°27' E 139°39'0 0.0
2017-May-28 05:01N 35°27' E 139°39'0 0.0
2017-May-28 04:31N 35°27' E 139°39'0 0.0
2017-May-28 04:01N 35°27' E 139°39'0 0.0
2017-May-28 03:31N 35°27' E 139°39'0 0.0
2017-May-28 03:01N 35°27' E 139°39'0 0.0
2017-May-28 02:30N 35°27' E 139°39'0 0.0
2017-May-28 02:01N 35°27' E 139°39'0 0.0
2017-May-28 01:31N 35°27' E 139°39'0 0.0
2017-May-28 01:01N 35°27' E 139°39'0 0.0
2017-May-28 00:30N 35°27' E 139°39'0 0.0
2017-May-28 00:01N 35°27' E 139°39'0 0.0
2017-May-27 23:31N 35°27' E 139°39'3 6.8
2017-May-27 23:00N 35°27' E 139°43'4 8.5
2017-May-27 22:30N 35°30' E 139°47'3 5.4
2017-May-27 22:01N 35°30' E 139°44'4 8.6
2017-May-27 21:30N 35°27' E 139°40'0 0.8
2017-May-27 21:01N 35°27' E 139°39'0 0.0
2017-May-27 20:31N 35°27' E 139°39'0 0.0
2017-May-27 20:01N 35°27' E 139°39'0 0.0
2017-May-27 19:30N 35°27' E 139°39'0 0.0
2017-May-27 19:01N 35°27' E 139°39'0 0.0
2017-May-27 18:31N 35°27' E 139°39'0 0.0
2017-May-27 18:01N 35°27' E 139°39'0 0.0
2017-May-27 17:30N 35°27' E 139°39'0 0.0
2017-May-27 17:01N 35°27' E 139°39'0 0.0
2017-May-27 16:31N 35°27' E 139°39'0 0.0
2017-May-27 16:00N 35°27' E 139°39'0 0.0
2017-May-27 15:31N 35°27' E 139°39'0 0.0
2017-May-27 15:01N 35°27' E 139°39'0 0.0
2017-May-27 14:31N 35°27' E 139°39'0 0.0
2017-May-27 13:30N 35°27' E 139°39'0 0.0
2017-May-27 13:01N 35°27' E 139°39'0 0.0
2017-May-27 12:30N 35°27' E 139°39'0 0.0
2017-May-27 12:00N 35°27' E 139°39'0 0.0
2017-May-27 11:31N 35°27' E 139°39'0 0.0
2017-May-27 11:01N 35°27' E 139°39'0 0.0
2017-May-27 10:31N 35°27' E 139°39'0 0.0
2017-May-27 10:01N 35°27' E 139°39'0 0.0
2017-May-27 09:31N 35°27' E 139°39'0 0.0
2017-May-27 09:01N 35°27' E 139°39'0 0.0
2017-May-27 08:31N 35°27' E 139°39'0 0.0
2017-May-27 08:01N 35°27' E 139°39'0 0.0
2017-May-27 07:30N 35°27' E 139°39'0 0.0
2017-May-27 07:01N 35°27' E 139°39'0 0.0
2017-May-27 06:31N 35°27' E 139°39'0 0.0
2017-May-27 06:00N 35°27' E 139°39'0 0.0
2017-May-27 05:30N 35°27' E 139°39'0 0.0
2017-May-27 05:01N 35°27' E 139°39'0 0.0
2017-May-27 04:31N 35°27' E 139°39'0 0.0
2017-May-27 04:01N 35°27' E 139°39'0 0.0
2017-May-27 03:30N 35°27' E 139°39'0 0.0
2017-May-27 03:01N 35°27' E 139°39'0 0.0
2017-May-27 02:30N 35°27' E 139°39'0 0.0
2017-May-27 02:01N 35°27' E 139°39'0 0.0
2017-May-27 01:31N 35°27' E 139°39'0 0.0
2017-May-27 01:01N 35°27' E 139°39'0 0.0
2017-May-27 00:30N 35°27' E 139°39'0 0.0
2017-May-27 00:01N 35°27' E 139°39'0 0.0
2017-May-26 23:31N 35°27' E 139°39'0 0.0
2017-May-26 23:00N 35°27' E 139°39'0 0.0
2017-May-26 22:30N 35°27' E 139°39'0 0.0
2017-May-26 22:01N 35°27' E 139°39'0 0.0
2017-May-26 21:30N 35°27' E 139°39'0 0.0
2017-May-26 21:01N 35°27' E 139°39'0 0.0
2017-May-26 20:31N 35°27' E 139°39'0 0.0
2017-May-26 20:01N 35°27' E 139°39'0 0.0
2017-May-26 19:31N 35°27' E 139°39'0 0.0
2017-May-26 19:00N 35°27' E 139°39'0 0.0
2017-May-26 18:30N 35°27' E 139°39'0 0.0
2017-May-26 18:00N 35°27' E 139°39'0 0.0
2017-May-26 17:30N 35°27' E 139°39'0 0.0
2017-May-26 17:00N 35°27' E 139°39'0 0.0
2017-May-26 16:31N 35°27' E 139°39'0 0.0
2017-May-26 16:01N 35°27' E 139°39'0 0.0
2017-May-26 15:31N 35°27' E 139°39'0 0.0
2017-May-26 15:01N 35°27' E 139°39'0 0.0
2017-May-26 14:01N 35°27' E 139°39'0 0.0
2017-May-26 13:31N 35°27' E 139°39'0 0.0
2017-May-26 13:00N 35°27' E 139°39'0 0.0
2017-May-26 12:31N 35°27' E 139°39'0 0.0
2017-May-26 12:01N 35°27' E 139°39'0 0.0
2017-May-26 11:30N 35°27' E 139°39'0 0.0
2017-May-26 11:01N 35°27' E 139°39'0 0.0
2017-May-26 10:31N 35°27' E 139°39'0 0.0
2017-May-26 10:00N 35°27' E 139°39'0 0.0
2017-May-26 09:31N 35°27' E 139°39'0 0.0
2017-May-26 09:00N 35°27' E 139°39'0 0.0
2017-May-26 08:31N 35°27' E 139°39'0 0.0
2017-May-26 08:01N 35°27' E 139°39'0 0.0
2017-May-26 07:30N 35°27' E 139°39'0 0.0
2017-May-26 07:00N 35°27' E 139°39'0 0.0
2017-May-26 06:31N 35°27' E 139°39'0 0.0
2017-May-26 06:01N 35°27' E 139°39'0 0.0
2017-May-26 05:30N 35°27' E 139°39'0 0.0
2017-May-26 05:01N 35°27' E 139°39'0 0.0
2017-May-26 04:30N 35°27' E 139°39'0 0.0
2017-May-26 04:00N 35°27' E 139°39'0 0.0
2017-May-26 03:31N 35°27' E 139°39'0 0.0
2017-May-26 03:01N 35°27' E 139°39'0 0.0
2017-May-26 02:30N 35°27' E 139°39'0 0.0
2017-May-26 02:01N 35°27' E 139°39'2 4.4
2017-May-26 01:30N 35°27' E 139°42'2 4.8
2017-May-26 01:01N 35°28' E 139°44'0 0.1
2017-May-26 00:31N 35°28' E 139°44'2 3.7
2017-May-26 00:01N 35°29' E 139°43'1 2.7
2017-May-25 23:31N 35°28' E 139°42'2 3.4
2017-May-25 23:01N 35°27' E 139°43'3 5.3
2017-May-25 22:31N 35°27' E 139°40'1 1.2
2017-May-25 22:01N 35°27' E 139°39'0 0.0
2017-May-25 21:31N 35°27' E 139°39'0 0.0
2017-May-25 21:01N 35°27' E 139°39'0 0.0
2017-May-25 20:30N 35°27' E 139°39'0 0.0
2017-May-25 20:00N 35°27' E 139°39'0 0.0
2017-May-25 19:31N 35°27' E 139°39'0 0.0
2017-May-25 19:01N 35°27' E 139°39'0 0.0
2017-May-25 18:31N 35°27' E 139°39'0 0.0
2017-May-25 18:01N 35°27' E 139°39'0 0.0
2017-May-25 17:31N 35°27' E 139°39'0 0.0
2017-May-25 17:01N 35°27' E 139°39'0 0.0
2017-May-25 16:31N 35°27' E 139°39'0 0.0
2017-May-25 16:01N 35°27' E 139°39'0 0.0
2017-May-25 15:30N 35°27' E 139°39'0 0.0
2017-May-25 15:00N 35°27' E 139°39'0 0.0
2017-May-25 14:30N 35°27' E 139°39'0 0.0
2017-May-25 13:31N 35°27' E 139°39'0 0.0
2017-May-25 13:01N 35°27' E 139°39'0 0.0
2017-May-25 12:31N 35°27' E 139°39'0 0.0
2017-May-25 12:01N 35°27' E 139°39'0 0.0
2017-May-25 11:30N 35°27' E 139°39'0 0.0
2017-May-25 11:00N 35°27' E 139°39'1 2.2
2017-May-25 10:30N 35°27' E 139°41'4 7.1
2017-May-25 10:00N 35°24' E 139°41'1 1.4
2017-May-25 09:31N 35°24' E 139°41'1 1.7
2017-May-25 09:00N 35°23' E 139°41'1 2.1
2017-May-25 08:30N 35°22' E 139°42'4 7.3
2017-May-25 08:00N 35°26' E 139°42'2 4.2
2017-May-25 07:31N 35°27' E 139°39'0 0.0
2017-May-25 07:00N 35°27' E 139°39'0 0.0
2017-May-25 06:31N 35°27' E 139°39'0 0.0
2017-May-25 06:00N 35°27' E 139°39'0 0.0
2017-May-25 05:31N 35°27' E 139°39'0 0.0
2017-May-25 05:01N 35°27' E 139°39'0 0.0
2017-May-25 04:31N 35°27' E 139°39'0 0.0
2017-May-25 04:01N 35°27' E 139°39'0 0.0
2017-May-25 03:31N 35°27' E 139°39'0 0.0
2017-May-25 03:00N 35°27' E 139°39'2 4.6
2017-May-25 02:30N 35°27' E 139°42'4 8.9
2017-May-25 02:01N 35°29' E 139°47'0 0.2
2017-May-25 01:31N 35°29' E 139°47'0 0.1
2017-May-25 01:00N 35°29' E 139°47'1 1.9
2017-May-25 00:30N 35°28' E 139°47'0 0.2
2017-May-25 00:01N 35°28' E 139°47'3 6.3
2017-May-24 23:31N 35°27' E 139°43'3 6.6
2017-May-24 23:00N 35°27' E 139°39'0 0.0
2017-May-24 22:31N 35°27' E 139°39'0 0.0
2017-May-24 22:01N 35°27' E 139°39'0 0.0
2017-May-24 21:31N 35°27' E 139°39'0 0.0
2017-May-24 21:01N 35°27' E 139°39'0 0.0
2017-May-24 20:30N 35°27' E 139°39'0 0.0
2017-May-24 20:01N 35°27' E 139°39'0 0.0
2017-May-24 19:31N 35°27' E 139°39'0 0.0
2017-May-24 19:01N 35°27' E 139°39'0 0.0
2017-May-24 18:30N 35°27' E 139°39'0 0.0
2017-May-24 18:01N 35°27' E 139°39'0 0.0
2017-May-24 17:31N 35°27' E 139°39'0 0.0
2017-May-24 17:01N 35°27' E 139°39'0 0.0
2017-May-24 16:31N 35°27' E 139°39'0 0.0
2017-May-24 16:01N 35°27' E 139°39'0 0.0
2017-May-24 15:31N 35°27' E 139°39'0 0.0
2017-May-24 15:01N 35°27' E 139°39'0 0.0
2017-May-24 14:30N 35°27' E 139°39'0 0.0
2017-May-24 13:31N 35°27' E 139°39'0 0.0
2017-May-24 13:01N 35°27' E 139°39'0 0.0
2017-May-24 12:31N 35°27' E 139°39'0 0.0
2017-May-24 12:00N 35°27' E 139°39'0 0.0
2017-May-24 11:31N 35°27' E 139°39'0 0.0
2017-May-24 11:01N 35°27' E 139°39'0 0.0
2017-May-24 10:31N 35°27' E 139°39'0 0.0
2017-May-24 10:01N 35°27' E 139°39'0 0.0
2017-May-24 09:31N 35°27' E 139°39'0 0.0
2017-May-24 09:01N 35°27' E 139°39'0 0.0
2017-May-24 08:31N 35°27' E 139°39'0 0.0
2017-May-24 08:00N 35°27' E 139°39'0 0.0
2017-May-24 07:31N 35°27' E 139°39'0 0.0
2017-May-24 07:01N 35°27' E 139°39'0 0.0
2017-May-24 06:31N 35°27' E 139°39'0 0.0
2017-May-24 06:00N 35°27' E 139°39'0 0.0
2017-May-24 05:31N 35°27' E 139°39'1 1.8
2017-May-24 05:00N 35°26' E 139°40'1 2.7
2017-May-24 04:30N 35°27' E 139°42'0 0.5
2017-May-24 04:01N 35°26' E 139°42'2 4.0
2017-May-24 03:30N 35°27' E 139°39'0 0.0
2017-May-24 03:01N 35°27' E 139°39'0 0.0
2017-May-24 02:31N 35°27' E 139°39'0 0.0
2017-May-24 02:01N 35°27' E 139°39'0 0.0
2017-May-24 01:31N 35°27' E 139°39'0 0.5
2017-May-24 01:00N 35°27' E 139°39'0 0.0
2017-May-24 00:31N 35°27' E 139°39'0 0.0
2017-May-24 00:01N 35°27' E 139°39'0 0.0
2017-May-23 23:31N 35°27' E 139°39'0 0.5
2017-May-23 23:01N 35°27' E 139°39'4 7.7
2017-May-23 22:31N 35°30' E 139°43'0 0.3
2017-May-23 22:01N 35°30' E 139°43'1 3.0
2017-May-23 21:31N 35°28' E 139°42'2 3.7
2017-May-23 21:01N 35°28' E 139°40'1 2.4
2017-May-23 20:30N 35°27' E 139°39'0 0.0
2017-May-23 20:01N 35°27' E 139°39'0 0.0
2017-May-23 19:31N 35°27' E 139°39'0 0.0
2017-May-23 19:01N 35°27' E 139°39'0 0.0
2017-May-23 18:30N 35°27' E 139°39'0 0.0
2017-May-23 18:01N 35°27' E 139°39'0 0.0
2017-May-23 17:30N 35°27' E 139°39'0 0.0
2017-May-23 17:01N 35°27' E 139°39'0 0.0
2017-May-23 16:31N 35°27' E 139°39'0 0.0
2017-May-23 16:01N 35°27' E 139°39'0 0.0
2017-May-23 15:30N 35°27' E 139°39'0 0.0
2017-May-23 15:01N 35°27' E 139°39'0 0.0
2017-May-23 14:31N 35°27' E 139°39'0 0.0
2017-May-23 13:30N 35°27' E 139°39'0 0.0
2017-May-23 13:01N 35°27' E 139°39'0 0.0
2017-May-23 12:31N 35°27' E 139°39'0 0.0
2017-May-23 12:00N 35°27' E 139°39'0 0.0
2017-May-23 11:30N 35°27' E 139°39'0 0.0
2017-May-23 11:01N 35°27' E 139°39'0 0.0
2017-May-23 10:31N 35°27' E 139°39'0 0.0
2017-May-23 10:01N 35°27' E 139°39'0 0.0
2017-May-23 09:31N 35°27' E 139°39'0 0.0
2017-May-23 09:01N 35°27' E 139°39'0 0.0
2017-May-23 08:30N 35°27' E 139°39'0 0.0
2017-May-23 08:01N 35°27' E 139°39'0 0.0
2017-May-23 07:31N 35°27' E 139°39'0 0.0
2017-May-23 07:01N 35°27' E 139°39'0 0.0
2017-May-23 06:31N 35°27' E 139°39'0 0.0
2017-May-23 06:01N 35°27' E 139°39'0 0.1
2017-May-23 05:31N 35°27' E 139°39'3 5.4
2017-May-23 05:01N 35°28' E 139°42'1 1.3
2017-May-23 04:31N 35°28' E 139°41'2 4.5
2017-May-23 04:01N 35°27' E 139°39'0 0.0
2017-May-23 03:30N 35°27' E 139°39'0 0.0
2017-May-23 03:01N 35°27' E 139°39'0 0.0
2017-May-23 02:30N 35°27' E 139°39'0 0.0
2017-May-23 02:01N 35°27' E 139°39'0 0.0
2017-May-23 01:31N 35°27' E 139°39'0 0.0
2017-May-23 01:00N 35°27' E 139°39'0 0.0
2017-May-23 00:31N 35°27' E 139°39'0 0.0
2017-May-23 00:00N 35°27' E 139°39'0 0.0
2017-May-22 23:31N 35°27' E 139°39'0 0.0
2017-May-22 23:01N 35°27' E 139°39'0 0.0
2017-May-22 22:31N 35°27' E 139°39'0 0.0
2017-May-22 22:01N 35°27' E 139°39'0 0.0
2017-May-22 21:30N 35°27' E 139°39'0 0.0
2017-May-22 21:00N 35°27' E 139°39'0 0.0
2017-May-22 20:30N 35°27' E 139°39'0 0.0
2017-May-22 20:01N 35°27' E 139°39'0 0.0
2017-May-22 19:31N 35°27' E 139°39'0 0.0
2017-May-22 19:00N 35°27' E 139°39'0 0.0
2017-May-22 18:31N 35°27' E 139°39'0 0.0
2017-May-22 18:01N 35°27' E 139°39'0 0.0
2017-May-22 17:31N 35°27' E 139°39'0 0.0
2017-May-22 17:00N 35°27' E 139°39'0 0.0
2017-May-22 16:31N 35°27' E 139°39'0 0.0
2017-May-22 16:01N 35°27' E 139°39'0 0.0
2017-May-22 15:30N 35°27' E 139°39'0 0.0
2017-May-22 15:00N 35°27' E 139°39'0 0.0
2017-May-22 14:00N 35°27' E 139°39'0 0.0
2017-May-22 13:30N 35°27' E 139°39'0 0.0
2017-May-22 13:01N 35°27' E 139°39'0 0.0
2017-May-22 12:31N 35°27' E 139°39'0 0.0
2017-May-22 12:01N 35°27' E 139°39'0 0.0
2017-May-22 11:31N 35°27' E 139°39'0 0.0
2017-May-22 11:01N 35°27' E 139°39'0 0.0
2017-May-22 10:31N 35°27' E 139°39'0 0.0
2017-May-22 10:01N 35°27' E 139°39'0 0.0
2017-May-22 09:31N 35°27' E 139°39'0 0.0
2017-May-22 09:00N 35°27' E 139°39'0 0.0
2017-May-22 08:31N 35°27' E 139°39'0 0.0
2017-May-22 08:00N 35°27' E 139°39'0 0.0
2017-May-22 07:31N 35°27' E 139°39'0 0.0
2017-May-22 07:01N 35°27' E 139°39'0 0.0
2017-May-22 06:30N 35°27' E 139°39'0 0.0
2017-May-22 06:00N 35°27' E 139°39'0 0.0
2017-May-22 05:30N 35°27' E 139°39'0 0.0
2017-May-22 05:00N 35°27' E 139°39'1 1.2
2017-May-22 04:31N 35°27' E 139°40'3 6.4
2017-May-22 04:00N 35°28' E 139°43'1 1.8
2017-May-22 03:30N 35°28' E 139°44'0 0.0
2017-May-22 03:00N 35°28' E 139°44'0 0.5
2017-May-22 02:30N 35°28' E 139°44'2 3.5
2017-May-22 02:00N 35°27' E 139°45'4 8.4
2017-May-22 01:30N 35°27' E 139°40'1 1.9
2017-May-22 01:00N 35°27' E 139°39'0 0.0
2017-May-22 00:31N 35°27' E 139°39'0 0.0
2017-May-22 00:00N 35°27' E 139°39'0 0.0
2017-May-21 23:31N 35°27' E 139°39'0 0.0
2017-May-21 23:00N 35°27' E 139°39'0 0.0
2017-May-21 22:30N 35°27' E 139°39'0 0.0
2017-May-21 22:00N 35°27' E 139°39'0 0.0
2017-May-21 21:31N 35°27' E 139°39'0 0.0
2017-May-21 21:01N 35°27' E 139°39'0 0.0
2017-May-21 20:31N 35°27' E 139°39'0 0.0
2017-May-21 20:00N 35°27' E 139°39'0 0.0
2017-May-21 19:31N 35°27' E 139°39'0 0.0
2017-May-21 19:01N 35°27' E 139°39'0 0.0
2017-May-21 18:31N 35°27' E 139°39'0 0.0
2017-May-21 18:01N 35°27' E 139°39'0 0.0
2017-May-21 17:30N 35°27' E 139°39'0 0.0
2017-May-21 17:00N 35°27' E 139°39'0 0.0
2017-May-21 16:31N 35°27' E 139°39'0 0.0
2017-May-21 16:01N 35°27' E 139°39'0 0.0
2017-May-21 15:30N 35°27' E 139°39'0 0.0
2017-May-21 15:01N 35°27' E 139°39'0 0.0
2017-May-21 14:00N 35°27' E 139°39'0 0.0
2017-May-21 13:31N 35°27' E 139°39'0 0.0
2017-May-21 13:01N 35°27' E 139°39'0 0.0
2017-May-21 12:31N 35°27' E 139°39'0 0.0
2017-May-21 12:01N 35°27' E 139°39'0 0.0
2017-May-21 11:30N 35°27' E 139°39'0 0.0
2017-May-21 11:01N 35°27' E 139°39'0 0.0
2017-May-21 10:31N 35°27' E 139°39'0 0.0
2017-May-21 10:01N 35°27' E 139°39'0 0.0
2017-May-21 09:31N 35°27' E 139°39'0 0.0
2017-May-21 09:00N 35°27' E 139°39'0 0.0
2017-May-21 08:31N 35°27' E 139°39'0 0.0
2017-May-21 08:01N 35°27' E 139°39'0 0.0
2017-May-21 07:31N 35°27' E 139°39'0 0.0
2017-May-21 07:01N 35°27' E 139°39'0 0.0
2017-May-21 06:31N 35°27' E 139°39'0 0.6
2017-May-21 06:00N 35°27' E 139°39'2 4.8
2017-May-21 05:30N 35°28' E 139°42'1 1.9
2017-May-21 05:01N 35°28' E 139°41'2 3.7
2017-May-21 04:30N 35°27' E 139°39'0 0.0
2017-May-21 04:01N 35°27' E 139°39'0 0.0
2017-May-21 03:30N 35°27' E 139°39'0 0.0
2017-May-21 03:01N 35°27' E 139°39'0 0.0
2017-May-21 02:31N 35°27' E 139°39'0 0.0
2017-May-21 02:01N 35°27' E 139°39'0 0.0
2017-May-21 01:30N 35°27' E 139°39'0 0.0
2017-May-21 01:01N 35°27' E 139°39'0 0.0
2017-May-21 00:31N 35°27' E 139°39'0 0.0
2017-May-21 00:01N 35°27' E 139°39'1 2.9
2017-May-20 23:31N 35°26' E 139°41'0 0.1
2017-May-20 23:01N 35°26' E 139°41'1 2.0
2017-May-20 22:31N 35°27' E 139°42'2 4.7
2017-May-20 22:00N 35°27' E 139°45'5 9.1
2017-May-20 21:30N 35°27' E 139°39'0 0.0
2017-May-20 21:00N 35°27' E 139°39'0 0.0
2017-May-20 20:31N 35°27' E 139°39'0 0.0
2017-May-20 20:01N 35°27' E 139°39'0 0.0
2017-May-20 19:31N 35°27' E 139°39'0 0.0
2017-May-20 19:01N 35°27' E 139°39'0 0.0
2017-May-20 18:31N 35°27' E 139°39'0 0.0
2017-May-20 18:01N 35°27' E 139°39'0 0.0
2017-May-20 17:31N 35°27' E 139°39'0 0.0
2017-May-20 17:01N 35°27' E 139°39'0 0.0
2017-May-20 16:30N 35°27' E 139°39'0 0.0
2017-May-20 16:00N 35°27' E 139°39'0 0.0
2017-May-20 15:30N 35°27' E 139°39'0 0.0
2017-May-20 15:00N 35°27' E 139°39'0 0.0
2017-May-20 14:00N 35°27' E 139°39'0 0.0
2017-May-20 13:31N 35°27' E 139°39'0 0.0
2017-May-20 13:01N 35°27' E 139°39'0 0.0
2017-May-20 12:31N 35°27' E 139°39'0 0.0
2017-May-20 12:01N 35°27' E 139°39'0 0.0
2017-May-20 11:30N 35°27' E 139°39'0 0.0
2017-May-20 11:01N 35°27' E 139°39'0 0.0
2017-May-20 10:31N 35°27' E 139°39'0 0.0
2017-May-20 10:01N 35°27' E 139°39'0 0.0
2017-May-20 09:30N 35°27' E 139°39'0 0.0
2017-May-20 09:00N 35°27' E 139°39'0 0.0
2017-May-20 08:30N 35°27' E 139°39'0 0.0
2017-May-20 08:00N 35°27' E 139°39'0 0.0
2017-May-20 07:30N 35°27' E 139°39'0 0.0
2017-May-20 07:00N 35°27' E 139°39'0 0.0
2017-May-20 06:30N 35°27' E 139°39'0 0.0
2017-May-20 06:01N 35°27' E 139°39'0 0.0
2017-May-20 05:31N 35°27' E 139°39'0 0.0
2017-May-20 05:01N 35°27' E 139°39'0 0.0
2017-May-20 04:31N 35°27' E 139°39'0 0.0
2017-May-20 04:01N 35°27' E 139°39'0 0.0
2017-May-20 03:31N 35°27' E 139°39'0 0.0
2017-May-20 03:01N 35°27' E 139°39'0 0.0
2017-May-20 02:31N 35°27' E 139°39'0 0.0
2017-May-20 02:00N 35°27' E 139°39'0 0.0
2017-May-20 01:30N 35°27' E 139°39'0 0.0
2017-May-20 01:01N 35°27' E 139°39'0 0.0
2017-May-20 00:31N 35°27' E 139°39'0 0.0
2017-May-20 00:01N 35°27' E 139°39'0 0.0
2017-May-19 23:31N 35°27' E 139°39'1 1.3
2017-May-19 23:00N 35°27' E 139°40'1 2.4
2017-May-19 22:31N 35°27' E 139°41'0 0.9
2017-May-19 22:00N 35°27' E 139°42'2 3.1
2017-May-19 21:31N 35°25' E 139°42'0 0.6
2017-May-19 21:01N 35°25' E 139°43'3 6.5
2017-May-19 20:31N 35°27' E 139°39'0 0.0
2017-May-19 20:01N 35°27' E 139°39'0 0.0
2017-May-19 19:31N 35°27' E 139°39'0 0.0
2017-May-19 19:01N 35°27' E 139°39'0 0.0
2017-May-19 18:30N 35°27' E 139°39'0 0.0
2017-May-19 18:01N 35°27' E 139°39'0 0.0
2017-May-19 17:31N 35°27' E 139°39'0 0.0
2017-May-19 17:00N 35°27' E 139°39'0 0.0
2017-May-19 16:30N 35°27' E 139°39'0 0.0
2017-May-19 16:01N 35°27' E 139°39'0 0.0
2017-May-19 15:31N 35°27' E 139°39'0 0.0
2017-May-19 15:01N 35°27' E 139°39'0 0.0
2017-May-19 14:01N 35°27' E 139°39'0 0.0
2017-May-19 13:31N 35°27' E 139°39'0 0.0
2017-May-19 13:00N 35°27' E 139°39'0 0.0
2017-May-19 12:31N 35°27' E 139°39'0 0.0
2017-May-19 12:00N 35°27' E 139°39'0 0.0
2017-May-19 11:31N 35°27' E 139°39'0 0.0
2017-May-19 11:01N 35°27' E 139°39'0 0.0
2017-May-19 10:31N 35°27' E 139°39'0 0.0
2017-May-19 10:00N 35°27' E 139°39'0 0.0
2017-May-19 09:31N 35°27' E 139°39'0 0.0
2017-May-19 09:00N 35°27' E 139°39'0 0.0
2017-May-19 08:30N 35°27' E 139°39'0 0.0
2017-May-19 08:01N 35°27' E 139°39'3 6.8
2017-May-19 07:30N 35°29' E 139°42'4 7.1
2017-May-19 07:00N 35°31' E 139°46'0 0.0
2017-May-19 06:31N 35°31' E 139°46'0 0.4
2017-May-19 06:01N 35°31' E 139°46'1 2.6
2017-May-19 05:27N 35°30' E 139°48'0 0.8
2017-May-19 05:00N 35°30' E 139°47'4 7.6
2017-May-19 04:31N 35°28' E 139°43'3 6.9
2017-May-19 04:01N 35°27' E 139°39'0 0.0
2017-May-19 03:31N 35°27' E 139°39'0 0.0
2017-May-19 03:01N 35°27' E 139°39'0 0.0
2017-May-19 02:30N 35°27' E 139°39'0 0.0
2017-May-19 02:01N 35°27' E 139°39'  

Dump ship's entire track history